logo
Rechercher aéroport 
image banner adimage banner adimage banner ad
image banner ad

56CL - Cyr Aviation

Situé à Blythe, United States

ICAO - 56CL, IATA -

Données fournies par Airmate  

Information générale

Coordonnées: N33°35'31" W114°36'20"
Élévation : 263 feet MSL.
Variation magnétique : 13° East
Voir autres Aéroports à California

Données opérationnelles

Special qualification required
Heure actuelle UTC:
Heure actuelle locale:
Météo à : KBLH - Blythe ( 11 km )
METAR: KBLH 011752Z AUTO 18009KT 10SM CLR 31/21 A2980 RMK AO2 SLP084 T03110211 10317 20267 50007 TSNO
TAF: KBLH 011720Z 0118/0218 19012KT P6SM FEW100 FEW250 TEMPO 0120/0124 19012G18KT FM020600 19004KT P6SM FEW100 FEW250
Voir NOTAMs / SUP AIP / TFR affectant cet aéroport [VIEW]
Fréquences de communication: [VIEW]

Pistes:

Identifiant RWYQFULongueur (ft)Largeur (ft)SurfaceLDA (ft)
16240050ASPH
34240050ASPH

Coordonnées de l'aéroport

Adresse: Blythe United States

Vue satellite de 56CL